Latest Coastal Weather Observations for Low Isles

IDQ60701

Issued at 8:55 am EST Friday 25 July 2014 (issued every 10 minutes, with the page automatically refreshed every 10 minutes)

About coastal observations | Map of coastal stations | Coastal observations for QLD | Marine services | Other Formats
Station Details ID: 031037 Name: LOW ISLES LIGHTHOUSE Lat: -16.38 Lon: 145.56 Height: 2.9 m
Data from the previous 72 hours. | See also: Recent months at Low Isles
Date/Time
EST
Temp

°C
Wind Pressure Rain
since 9am
mm
Weather Cloud Vis
km
Sea
Height
m
Swell
Dir
 
Speed
knots
Gust
knots
hPa Trend Height
m
Period
s
Dir
25/08:30am 21.7 SSE 13 15 1019.4 - 0.2 - - - - - - -
25/08:00am 21.6 SE 19 24 1019.3 - 0.2 - - - - - - -
25/07:30am 21.9 SSE 16 19 1018.9 - 0.2 - - - - - - -
25/07:00am 21.7 S 13 15 1018.4 - 0.2 - - - - - - -
25/06:30am 21.6 SSE 15 17 1018.3 - 0.2 - - - - - - -
25/06:00am 21.5 SSE 16 18 1017.7 - 0.2 - - - - - - -
25/05:30am 21.3 SSE 17 18 1017.6 - 0.2 - - - - - - -
25/05:00am 21.7 SSE 15 17 1017.4 - 0.2 - - - - - - -
25/04:30am 21.9 SE 12 15 1017.4 - 0.2 - - - - - - -
25/04:00am 21.6 SSE 14 15 1017.3 - 0.2 - - - - - - -
25/03:30am 21.7 SE 14 16 1017.3 - 0.2 - - - - - - -
25/03:00am 22.0 SSE 16 18 1017.3 - 0.2 - - - - - - -
25/02:30am 22.1 SSE 15 16 1017.5 - 0.2 - - - - - - -
25/02:00am 22.2 SSE 13 15 1017.5 - 0.2 - - - - - - -
25/01:30am 22.3 SE 14 17 1017.7 - 0.2 - - - - - - -
25/01:00am 22.3 SSE 15 16 1017.7 - 0.2 - - - - - - -
25/12:30am 22.5 SE 17 19 1018.1 - 0.2 - - - - - - -
25/12:00am 22.5 SE 17 19 1018.1 - 0.2 - - - - - - -
 
Date/Time
EST
Temp

°C
Wind Pressure Rain
since 9am
mm
Weather Cloud Vis
km
Sea
Height
m
Swell
Dir
 
Speed
knots
Gust
knots
hPa Trend Height
m
Period
s
Dir
24/11:30pm 22.6 SE 16 19 1018.3 - 0.2 - - - - - - -
24/11:00pm 22.6 SE 16 19 1018.5 - 0.2 - - - - - - -
24/10:30pm 22.7 SE 13 17 1018.6 - 0.2 - - - - - - -
24/10:00pm 22.9 SE 12 15 1018.7 - 0.2 - - - - - - -
24/09:30pm 22.0 SSW 5 7 1018.6 - 0.2 - - - - - - -
24/09:00pm 22.2 WSW 6 8 1018.4 - 0.2 - - - - - - -
24/08:30pm 22.7 S 7 10 1018.3 - 0.2 - - - - - - -
24/08:00pm 22.8 SSE 7 8 1017.9 - 0.2 - - - - - - -
24/07:30pm 22.7 SSE 7 8 1017.7 - 0.2 - - - - - - -
24/07:00pm 22.8 SSE 7 8 1017.3 - 0.2 - - - - - - -
24/06:30pm 22.8 SSE 9 10 1017.0 - 0.2 - - - - - - -
24/06:00pm 22.9 SSE 8 9 1016.5 - 0.2 - - - - - - -
24/05:30pm 23.2 SSE 8 9 1016.4 - 0.2 - - - - - - -
24/05:00pm 23.6 SSE 6 7 1016.2 - 0.2 - - - - - - -
24/04:30pm 23.9 SSE 9 10 1016.0 - 0.2 - - - - - - -
24/04:00pm 23.8 SSE 7 9 1016.1 - 0.2 - - - - - - -
24/03:30pm 24.8 S 5 6 1016.1 - 0.2 - - - - - - -
24/03:00pm 24.7 SSW 5 7 1015.9 - 0.2 Distant precip. Mostly cloudy 20 - - - -
24/02:30pm 23.6 SW 7 8 1016.2 - 0.2 - - - - - - -
24/02:00pm 23.1 S 6 8 1016.6 - 0.2 - - - - - - -
24/01:30pm 22.6 SSE 7 9 1017.0 - 0.0 - - - - - - -
24/01:00pm 22.2 S 7 9 1017.2 - 0.0 - - - - - - -
24/12:30pm 22.1 SSE 11 13 1017.7 - 0.0 - - - - - - -
24/12:00pm 22.5 S 15 16 1017.7 - 0.0 - - - - - - -
24/11:30am 22.5 SE 12 15 1018.1 - 0.0 - - - - - - -
24/11:00am 22.7 SSE 12 14 1018.2 - 0.0 - - - - - - -
24/10:30am 22.8 SSE 13 14 1018.2 - 0.0 - - - - - - -
24/10:00am 22.3 SSE 13 14 1018.2 - 0.0 - - - - - - -
24/09:30am 22.1 SSE 13 14 1018.1 - 0.0 - - - - - - -
24/09:00am 21.4 SSE 13 16 1017.7 - 0.0 Haze Partly cloudy 15 - - - -
24/08:30am 21.8 SSE 15 16 1017.4 - 0.0 - - - - - - -
24/08:00am 21.8 SSE 15 17 1016.8 - 0.0 - - - - - - -
24/07:30am 21.7 SSE 15 18 1016.4 - 0.0 - - - - - - -
24/07:00am 21.7 SSE 17 19 1016.1 - 0.0 - - - - - - -
24/06:30am 21.6 SSE 17 19 1015.9 - 0.0 - - - - - - -
24/06:00am 21.6 SSE 16 19 1015.7 - 0.0 - - - - - - -
24/05:30am 21.5 SSE 15 18 1015.6 - 0.0 - - - - - - -
24/05:00am 21.5 SSE 14 16 1015.6 - 0.0 - - - - - - -
24/04:30am 21.3 SSE 15 16 1015.4 - 0.0 - - - - - - -
24/04:00am 21.2 S 13 15 1015.5 - 0.0 - - - - - - -
24/03:30am 21.0 SSE 14 16 1015.6 - 0.0 - - - - - - -
24/03:00am 21.0 SSE 14 15 1015.7 - 0.0 - - - - - - -
24/02:30am 21.2 SSE 15 17 1016.1 - 0.0 - - - - - - -
24/02:00am 21.2 SSE 15 17 1016.4 - 0.0 - - - - - - -
24/01:30am 21.3 SSE 16 17 1016.6 - 0.0 - - - - - - -
24/01:00am 21.5 SSE 17 19 1017.0 - 0.0 - - - - - - -
24/12:30am 21.7 SSE 17 19 1017.2 - 0.0 - - - - - - -
24/12:00am 21.8 SSE 18 21 1017.2 - 0.0 - - - - - - -
 
Date/Time
EST
Temp

°C
Wind Pressure Rain
since 9am
mm
Weather Cloud Vis
km
Sea
Height
m
Swell
Dir
 
Speed
knots
Gust
knots
hPa Trend Height
m
Period
s
Dir
23/11:30pm 22.0 SSE 19 21 1017.3 - 0.0 - - - - - - -
23/11:00pm 22.0 SSE 19 22 1017.5 - 0.0 - - - - - - -
23/10:30pm 22.1 SSE 20 23 1017.5 - 0.0 - - - - - - -
23/10:00pm 22.2 SSE 21 24 1017.4 - 0.0 - - - - - - -
23/09:30pm 22.4 SE 20 23 1017.4 - 0.0 - - - - - - -
23/09:00pm 22.5 SE 20 24 1017.1 - 0.0 - - - - - - -
23/08:30pm 22.5 SE 20 24 1016.9 - 0.0 - - - - - - -
23/08:00pm 22.4 SE 19 23 1016.7 - 0.0 - - - - - - -
23/07:30pm 22.6 SE 20 24 1016.3 - 0.0 - - - - - - -
23/07:00pm 22.6 SE 20 24 1016.0 - 0.0 - - - - - - -
23/06:30pm 22.5 SE 19 22 1015.9 - 0.0 - - - - - - -
23/06:00pm 22.6 SE 17 19 1015.5 - 0.0 - - - - - - -
23/05:30pm 22.6 SE 14 16 1015.4 - 0.0 - - - - - - -
23/05:00pm 22.9 SE 15 19 1015.2 - 0.0 - - - - - - -
23/04:30pm 23.3 SE 15 19 1014.9 - 0.0 - - - - - - -
23/04:00pm 23.4 SE 17 20 1014.7 - 0.0 - - - - - - -
23/03:30pm 23.9 SE 17 21 1014.6 - 0.0 - - - - - - -
23/03:00pm 24.0 SE 17 20 1014.5 - 0.0 Haze Mostly cloudy 20 - - - -
23/02:30pm 23.9 SE 17 20 1014.8 - 0.0 - - - - - - -
23/02:00pm 24.4 SE 17 21 1015.1 - 0.0 - - - - - - -
23/01:30pm 24.9 SE 16 20 1015.3 - 0.0 - - - - - - -
23/01:00pm 24.6 SE 18 20 1015.7 - 0.0 - - - - - - -
23/12:30pm 24.4 SE 18 20 1015.9 - 0.0 - - - - - - -
23/12:00pm 24.0 SSE 18 20 1016.2 - 0.0 - - - - - - -
23/11:30am 23.9 SSE 17 20 1016.7 - 0.0 - - - - - - -
23/11:00am 23.1 SSE 16 18 1017.0 - 0.0 - - - - - - -
23/10:30am 22.5 SSE 16 19 1017.4 - 0.0 - - - - - - -
23/10:00am 22.3 SSE 17 18 1017.5 - 0.0 - - - - - - -
23/09:30am 22.2 SSE 15 18 1017.7 - 0.0 - - - - - - -
23/09:00am 21.5 S 10 12 1017.7 - 0.0 Smoke Mostly cloudy 14 - - - -
23/08:30am 21.2 SW 9 11 1017.6 - 0.0 - - - - - - -
23/08:00am 20.6 WSW 10 11 1017.3 - 0.0 - - - - - - -
23/07:30am 20.8 WSW 7 8 1017.1 - 0.0 - - - - - - -
23/07:00am 21.5 SSE 12 14 1016.9 - 0.0 - - - - - - -
23/06:30am 21.4 SSE 14 15 1016.6 - 0.0 - - - - - - -
23/06:00am 21.4 SSE 15 17 1016.3 - 0.0 - - - - - - -
23/05:30am 21.3 SSE 15 17 1016.2 - 0.0 - - - - - - -
23/05:00am 21.3 SSE 16 18 1015.8 - 0.0 - - - - - - -
23/04:30am 21.2 SSE 17 19 1015.7 - 0.0 - - - - - - -
23/04:00am 21.1 SSE 15 17 1015.9 - 0.0 - - - - - - -
23/03:30am 21.0 S 15 16 1016.0 - 0.0 - - - - - - -
23/03:00am 21.0 S 14 16 1016.2 - 0.0 - - - - - - -
23/02:30am 21.1 S 14 17 1016.6 - 0.0 - - - - - - -
23/02:00am 21.0 S 14 15 1016.9 - 0.0 - - - - - - -
23/01:30am 21.0 S 13 15 1017.1 - 0.0 - - - - - - -
23/01:00am 21.0 S 12 15 1017.3 - 0.0 - - - - - - -
23/12:30am 20.9 S 13 16 1017.5 - 0.0 - - - - - - -
23/12:00am 21.2 SSE 14 16 1017.6 - 0.0 - - - - - - -
 
Date/Time
EST
Temp

°C
Wind Pressure Rain
since 9am
mm
Weather Cloud Vis
km
Sea
Height
m
Swell
Dir
 
Speed
knots
Gust
knots
hPa Trend Height
m
Period
s
Dir
22/11:30pm 21.3 SSE 13 16 1017.9 - 0.0 - - - - - - -
22/11:00pm 21.3 SSE 12 14 1018.0 - 0.0 - - - - - - -
22/10:30pm 21.4 SSE 14 16 1018.1 - 0.0 - - - - - - -
22/10:00pm 21.4 SSE 14 16 1018.0 - 0.0 - - - - - - -
22/09:30pm 21.8 SE 12 15 1017.9 - 0.0 - - - - - - -
22/09:00pm 21.9 SE 11 12 1017.8 - 0.0 - - - - - - -
22/08:30pm 21.7 SE 10 12 1017.9 - 0.0 - - - - - - -
22/08:00pm 21.8 SE 11 13 1017.7 - 0.0 - - - - - - -
22/07:30pm 21.9 SE 12 14 1017.5 - 0.0 - - - - - - -
22/07:00pm 21.9 SE 11 14 1017.1 - 0.0 - - - - - - -
22/06:30pm 22.0 SE 10 12 1016.7 - 0.0 - - - - - - -
22/06:00pm 22.2 SE 10 11 1016.3 - 0.0 - - - - - - -
22/05:30pm 22.2 SE 10 11 1016.1 - 0.0 - - - - - - -
22/05:00pm 22.5 SE 11 13 1015.9 - 0.0 - - - - - - -
22/04:30pm 23.1 SE 10 12 1015.9 - 0.0 - - - - - - -
22/04:00pm 23.6 SSE 9 10 1015.9 - 0.0 - - - - - - -
22/03:30pm 23.8 SSE 8 10 1015.8 - 0.0 - - - - - - -
22/03:00pm 24.0 SSE 9 11 1015.8 - 0.0 Haze Mostly clear 18 - - - -
22/02:30pm 23.8 SSE 10 12 1016.1 - 0.0 - - - - - - -
22/02:00pm 23.7 SSE 9 10 1016.3 - 0.0 - - - - - - -
22/01:30pm 23.6 S 9 11 1016.7 - 0.0 - - - - - - -
22/01:00pm 23.4 S 11 12 1017.2 - 0.0 - - - - - - -
22/12:30pm 23.2 S 10 12 1018.0 - 0.0 - - - - - - -
22/12:00pm 22.8 S 11 13 1018.4 - 0.0 - - - - - - -
22/11:30am 22.7 S 10 13 1019.1 - 0.0 - - - - - - -
22/11:00am 22.4 SSE 11 14 1019.5 - 0.0 - - - - - - -
22/10:30am 21.9 S 9 10 1019.7 - 0.0 - - - - - - -
22/10:00am 21.3 S 9 11 1019.8 - 0.0 - - - - - - -
22/09:30am 20.8 SSW 10 12 1019.9 - 0.0 - - - - - - -
22/09:00am 20.5 SSW 10 13 1019.8 - 0.0 Haze Mostly clear 25 - - - -

Other Formats:

Comma delimited format used in spreadsheet applications
http://www.bom.gov.au/fwo/IDQ60701/IDQ60701.94285.axf

JavaScript Object Notation format (JSON) in row-major order
http://www.bom.gov.au/fwo/IDQ60701/IDQ60701.94285.json